Time;durP1;ratioP1;P1;durP2;ratioP2;P2;SDS_P1;SDS_P2;PMS_P1;PMS_P2;Temp;Humidity;BMP_temperature;BMP_pressure;BME280_temperature;BME280_humidity;BME280_pressure;Samples;Min_cycle;Max_cycle;Signal;HPM_P1;HPM_P2
2023/12/29 00:00:25;;;;;;;;;1.00;1.00;;;;;9.84;100.00;101342.75;5038526;28;45263;-75
2023/12/29 00:02:51;;;;;;;;;3.67;1.00;;;;;9.47;100.00;101267.16;5038917;28;45692;-75
2023/12/29 00:05:16;;;;;;;;;2.00;2.00;;;;;10.15;100.00;101364.44;5038809;28;46400;-75
2023/12/29 00:07:42;;;;;;;;;4.00;2.00;;;;;9.89;100.00;101308.81;5039443;27;45428;-75
2023/12/29 00:10:08;;;;;;;;;3.33;2.00;;;;;10.00;100.00;101322.34;5040210;28;45528;-75
2023/12/29 00:12:34;;;;;;;;;3.67;2.33;;;;;10.00;100.00;101316.03;5038511;28;45428;-75
2023/12/29 00:14:59;;;;;;;;;4.00;2.33;;;;;9.98;100.00;101323.44;5040145;27;45393;-75
2023/12/29 00:17:24;;;;;;;;;6.33;2.00;;;;;9.94;100.00;101306.53;5031794;28;45323;-74
2023/12/29 00:19:50;;;;;;;;;2.00;2.00;;;;;10.07;100.00;101344.38;5040625;28;45371;-75
2023/12/29 00:22:15;;;;;;;;;3.00;2.00;;;;;10.32;100.00;101356.75;5033876;28;45444;-74
2023/12/29 00:24:40;;;;;;;;;2.33;2.33;;;;;10.49;100.00;101389.63;5040588;27;45504;-75
2023/12/29 00:27:06;;;;;;;;;4.00;1.67;;;;;9.95;100.00;101301.97;5032230;28;45273;-75
2023/12/29 00:29:32;;;;;;;;;4.00;2.33;;;;;10.15;100.00;101339.16;5040349;28;45446;-75
2023/12/29 00:31:58;;;;;;;;;1.67;1.00;;;;;10.25;100.00;101336.53;5035364;28;45463;-75
2023/12/29 00:34:23;;;;;;;;;4.00;1.00;;;;;10.35;100.00;101340.19;5038483;28;46638;-75
2023/12/29 00:36:49;;;;;;;;;5.00;1.00;;;;;10.63;100.00;101390.28;5031662;27;55305;-75
2023/12/29 00:39:14;;;;;;;;;7.33;3.00;;;;;10.55;100.00;101377.34;5040391;28;45329;-76
2023/12/29 00:41:40;;;;;;;;;3.00;2.00;;;;;10.67;100.00;101378.13;5033315;28;45650;-75
2023/12/29 00:44:07;;;;;;;;;2.00;2.00;;;;;10.13;100.00;101268.69;5040053;27;46351;-75
2023/12/29 00:46:32;;;;;;;;;2.00;1.67;;;;;10.11;100.00;101284.25;5036027;28;45456;-75
2023/12/29 00:48:57;;;;;;;;;2.00;2.00;;;;;10.35;100.00;101308.47;5039817;28;45426;-75
2023/12/29 00:51:23;;;;;;;;;2.33;2.33;;;;;9.41;100.00;101145.66;5035277;28;45337;-75
2023/12/29 00:53:48;;;;;;;;;2.00;2.00;;;;;10.54;100.00;101330.31;5039691;28;52670;-76
2023/12/29 00:56:13;;;;;;;;;2.33;2.33;;;;;10.13;100.00;101257.84;5037755;28;45335;-75
2023/12/29 00:58:39;;;;;;;;;3.00;1.00;;;;;9.70;100.00;101178.41;5040347;28;45533;-75
2023/12/29 01:01:08;;;;;;;;;2.67;2.00;;;;;10.53;100.00;101319.56;5037883;27;45353;-75
2023/12/29 01:03:34;;;;;;;;;2.00;2.00;;;;;10.63;100.00;101331.34;5043202;28;46905;-75
2023/12/29 01:05:59;;;;;;;;;2.00;2.00;;;;;10.80;100.00;101363.38;5028781;28;45481;-75
2023/12/29 01:08:24;;;;;;;;;3.00;1.67;;;;;10.33;100.00;101268.84;5039879;27;45262;-75
2023/12/29 01:10:50;;;;;;;;;4.00;2.00;;;;;10.87;100.00;101350.94;5037157;28;45175;-75
2023/12/29 01:13:15;;;;;;;;;4.33;2.00;;;;;10.81;100.00;101340.59;5037956;28;47520;-75
2023/12/29 01:15:44;;;;;;;;;2.00;2.00;;;;;10.73;100.00;101326.84;5037350;28;45494;-75
2023/12/29 01:18:09;;;;;;;;;1.00;1.00;;;;;10.80;100.00;101317.16;5035768;28;45465;-75
2023/12/29 01:20:34;;;;;;;;;3.00;2.00;;;;;9.99;100.00;101195.75;5037906;28;45481;-75
2023/12/29 01:23:00;;;;;;;;;2.33;2.00;;;;;10.52;100.00;101280.66;5035568;28;51723;-75
2023/12/29 01:25:25;;;;;;;;;2.00;0.00;;;;;9.99;100.00;101193.03;5037921;28;45344;-75
2023/12/29 01:27:51;;;;;;;;;1.00;1.00;;;;;10.66;100.00;101314.81;5036330;28;45444;-75
2023/12/29 01:30:16;;;;;;;;;1.67;1.67;;;;;10.69;100.00;101329.94;5041630;28;45500;-74
2023/12/29 01:32:41;;;;;;;;;3.33;1.67;;;;;10.07;100.00;101212.22;5038482;28;46474;-74
2023/12/29 01:35:07;;;;;;;;;6.33;1.67;;;;;10.24;100.00;101234.34;5042197;28;45289;-75
2023/12/29 01:37:32;;;;;;;;;4.00;3.00;;;;;10.24;100.00;101253.34;5037545;28;45475;-74
2023/12/29 01:39:58;;;;;;;;;1.67;1.33;;;;;10.09;100.00;101207.50;5043064;27;45572;-74
2023/12/29 01:42:23;;;;;;;;;2.67;1.00;;;;;10.48;100.00;101275.66;5038111;28;46249;-74
2023/12/29 01:44:53;;;;;;;;;1.67;1.67;;;;;10.49;100.00;101269.22;5040694;28;45198;-74
2023/12/29 01:47:21;;;;;;;;;3.00;2.33;;;;;10.84;100.00;101337.63;5037372;28;45379;-75
2023/12/29 01:49:48;;;;;;;;;3.67;2.00;;;;;10.24;100.00;101237.91;5038439;28;45462;-76
2023/12/29 01:52:15;;;;;;;;;1.67;1.00;;;;;10.91;100.00;101340.66;5038364;28;46527;-75
2023/12/29 01:54:42;;;;;;;;;2.00;2.00;;;;;10.91;100.00;101348.81;5040272;28;45263;-76
2023/12/29 01:57:08;;;;;;;;;4.33;1.33;;;;;10.64;100.00;101289.59;5039680;28;45410;-76
2023/12/29 01:59:35;;;;;;;;;1.67;1.00;;;;;10.74;100.00;101306.81;5042079;28;45306;-76
2023/12/29 02:02:01;;;;;;;;;2.00;1.00;;;;;10.31;100.00;101233.66;5039603;28;46309;-76
2023/12/29 02:04:27;;;;;;;;;2.67;0.67;;;;;11.01;100.00;101329.81;5041438;28;45311;-75
2023/12/29 02:06:54;;;;;;;;;5.33;3.00;;;;;10.44;100.00;101244.31;5040665;27;45354;-75
2023/12/29 02:09:20;;;;;;;;;10.33;4.00;;;;;10.40;100.00;101230.13;5042136;27;45496;-75
2023/12/29 02:11:46;;;;;;;;;0.00;0.00;;;;;10.14;100.00;101199.84;5039476;28;46281;-75
2023/12/29 02:14:12;;;;;;;;;2.00;2.00;;;;;11.00;100.00;101334.41;5041655;28;45328;-75
2023/12/29 02:16:50;;;;;;;;;2.67;2.00;;;;;11.01;100.00;101333.41;5036829;28;45362;-75
2023/12/29 02:19:37;;;;;;;;;1.67;1.00;;;;;10.61;100.00;101257.25;5038945;28;45552;-75
2023/12/29 02:22:03;;;;;;;;;3.67;2.67;;;;;10.75;100.00;101283.19;5036018;27;45586;-75
2023/12/29 02:24:29;;;;;;;;;3.00;2.00;;;;;11.04;100.00;101334.97;5041645;28;45359;-75
2023/12/29 02:27:10;;;;;;;;;2.00;1.33;;;;;10.60;100.00;101255.53;5035887;27;45317;-75
2023/12/29 02:29:40;;;;;;;;;1.00;1.00;;;;;10.97;100.00;101322.91;5057867;28;45385;-75
2023/12/29 02:32:11;;;;;;;;;4.00;1.00;;;;;10.60;100.00;101265.53;5036246;28;45661;-75
2023/12/29 02:34:40;;;;;;;;;3.00;1.00;;;;;10.08;100.00;101178.63;5042126;27;45421;-75
2023/12/29 02:37:06;;;;;;;;;3.00;3.00;;;;;10.51;100.00;101240.06;5031886;28;45265;-76
2023/12/29 02:39:31;;;;;;;;;1.00;1.00;;;;;10.75;100.00;101281.34;5042048;28;45380;-75
2023/12/29 02:41:57;;;;;;;;;3.00;1.00;;;;;10.15;100.00;101163.50;5034439;28;48267;-75
2023/12/29 02:44:22;;;;;;;;;1.67;1.00;;;;;10.33;100.00;101198.22;5038077;28;45494;-75
2023/12/29 02:46:47;;;;;;;;;4.33;2.00;;;;;10.95;100.00;101316.78;5037756;28;45420;-75
2023/12/29 02:49:13;;;;;;;;;1.00;1.00;;;;;9.72;100.00;101111.28;5041661;28;45549;-74
2023/12/29 02:51:39;;;;;;;;;2.00;1.67;;;;;10.75;100.00;101292.22;5038253;28;46142;-75
2023/12/29 02:54:05;;;;;;;;;4.00;1.33;;;;;10.79;100.00;101280.09;5038979;28;45373;-75
2023/12/29 02:56:31;;;;;;;;;5.00;2.00;;;;;10.55;100.00;101246.94;5039575;28;45446;-75
2023/12/29 02:58:56;;;;;;;;;2.00;1.33;;;;;10.50;100.00;101227.47;5057231;28;45377;-75
2023/12/29 03:01:22;;;;;;;;;3.00;1.00;;;;;10.89;100.00;101288.25;5039020;28;46339;-75
2023/12/29 03:03:47;;;;;;;;;4.33;2.67;;;;;10.89;100.00;101277.38;5040845;28;45243;-76
2023/12/29 03:06:12;;;;;;;;;2.00;1.00;;;;;10.04;100.00;101135.59;5034444;28;51035;-75
2023/12/29 03:08:38;;;;;;;;;3.33;1.67;;;;;10.84;100.00;101291.41;5036083;27;45355;-75
2023/12/29 03:11:03;;;;;;;;;4.67;1.00;;;;;10.10;100.00;101160.34;5030175;28;45172;-75
2023/12/29 03:13:28;;;;;;;;;6.00;3.00;;;;;10.14;100.00;101171.81;5046189;28;45344;-75
2023/12/29 03:15:54;;;;;;;;;5.67;1.00;;;;;10.40;100.00;101212.97;5039746;27;45295;-75
2023/12/29 03:18:19;;;;;;;;;3.00;1.00;;;;;10.10;100.00;101159.50;5036557;28;45399;-74
2023/12/29 03:20:44;;;;;;;;;3.00;2.00;;;;;10.19;100.00;101157.84;5039194;28;45353;-74
2023/12/29 03:23:10;;;;;;;;;2.00;2.00;;;;;10.47;100.00;101212.31;5039559;27;45423;-75
2023/12/29 03:25:35;;;;;;;;;3.33;1.00;;;;;9.45;100.00;101037.75;5039158;28;45304;-75
2023/12/29 03:28:00;;;;;;;;;3.00;2.00;;;;;10.91;100.00;101284.41;5035299;28;45513;-75
2023/12/29 03:30:26;;;;;;;;;2.00;2.00;;;;;10.74;100.00;101247.00;5039828;28;46123;-75
2023/12/29 03:32:51;;;;;;;;;5.00;2.00;;;;;10.59;100.00;101213.09;5038216;28;45224;-75
2023/12/29 03:35:16;;;;;;;;;2.00;2.00;;;;;10.92;100.00;101275.28;5040286;28;45162;-75
2023/12/29 03:37:42;;;;;;;;;2.33;2.00;;;;;11.01;100.00;101275.44;5037135;27;45664;-75
2023/12/29 03:40:08;;;;;;;;;3.00;1.00;;;;;9.83;100.00;101064.22;5033641;28;47092;-75
2023/12/29 03:42:33;;;;;;;;;3.33;2.00;;;;;11.04;100.00;101275.16;5036275;27;45481;-75
2023/12/29 03:44:59;;;;;;;;;2.67;2.33;;;;;10.97;100.00;101273.97;5040888;27;45308;-75
2023/12/29 03:47:24;;;;;;;;;1.67;1.00;;;;;10.99;100.00;101275.56;5036458;28;45628;-75
2023/12/29 03:49:49;;;;;;;;;3.00;2.00;;;;;10.28;100.00;101146.19;5032427;28;46340;-74
2023/12/29 03:52:15;;;;;;;;;1.00;1.00;;;;;11.04;100.00;101275.16;5036709;28;45457;-75
2023/12/29 03:54:40;;;;;;;;;1.00;1.00;;;;;10.57;100.00;101196.06;5040159;28;57190;-75
2023/12/29 03:57:05;;;;;;;;;2.33;1.00;;;;;10.16;100.00;101127.22;5038841;28;45357;-75
2023/12/29 03:59:30;;;;;;;;;1.00;1.00;;;;;10.88;100.00;101243.91;5035883;28;51280;-75
2023/12/29 04:01:56;;;;;;;;;3.00;2.00;;;;;10.90;100.00;101244.63;5038582;28;45368;-75
2023/12/29 04:04:21;;;;;;;;;1.00;1.00;;;;;10.61;100.00;101186.59;5040160;28;45368;-75
2023/12/29 04:06:46;;;;;;;;;3.00;1.33;;;;;10.99;100.00;101250.25;5035865;27;45403;-75
2023/12/29 04:09:12;;;;;;;;;2.00;2.00;;;;;11.06;100.00;101270.44;5038164;27;63544;-75
2023/12/29 04:11:37;;;;;;;;;3.33;2.00;;;;;10.42;100.00;101153.94;5037736;28;45315;-75
2023/12/29 04:14:02;;;;;;;;;2.33;1.00;;;;;10.78;100.00;101223.16;5039944;27;45521;-74
2023/12/29 04:16:28;;;;;;;;;0.00;0.00;;;;;10.66;100.00;101192.50;5036564;28;45386;-74
2023/12/29 04:18:53;;;;;;;;;2.33;2.00;;;;;10.70;100.00;101188.50;5033613;28;54154;-74
2023/12/29 04:21:18;;;;;;;;;3.33;1.00;;;;;10.87;100.00;101219.59;5037541;28;45309;-74
2023/12/29 04:23:43;;;;;;;;;4.67;1.00;;;;;11.05;100.00;101253.25;5038602;28;45429;-75
2023/12/29 04:26:09;;;;;;;;;2.67;1.00;;;;;10.95;100.00;101227.94;5033905;28;45684;-74
2023/12/29 04:28:34;;;;;;;;;4.00;2.33;;;;;10.80;100.00;101203.00;5038033;27;46688;-75
2023/12/29 04:30:59;;;;;;;;;1.00;1.00;;;;;10.93;100.00;101224.47;5037185;28;45252;-75
2023/12/29 04:33:25;;;;;;;;;9.00;3.00;;;;;11.00;100.00;101232.94;5035297;27;45185;-75
2023/12/29 04:35:51;;;;;;;;;1.33;1.33;;;;;10.89;100.00;101213.00;5036951;28;45541;-75
2023/12/29 04:38:18;;;;;;;;;2.00;1.00;;;;;10.95;100.00;101221.63;5038232;27;45688;-75
2023/12/29 04:40:43;;;;;;;;;3.00;1.00;;;;;10.13;100.00;101092.22;5037832;28;45557;-75
2023/12/29 04:43:08;;;;;;;;;2.00;2.00;;;;;9.93;100.00;101060.56;5033094;28;45607;-75
2023/12/29 04:45:34;;;;;;;;;2.00;2.00;;;;;10.57;100.00;101152.56;5037251;28;45516;-75
2023/12/29 04:47:59;;;;;;;;;4.33;1.00;;;;;10.86;100.00;101202.44;5036922;28;46495;-75
2023/12/29 04:50:24;;;;;;;;;5.00;3.00;;;;;11.14;100.00;101249.72;5035433;28;45314;-75
2023/12/29 04:52:50;;;;;;;;;1.00;1.00;;;;;9.61;100.00;100984.72;5038738;28;45251;-76
2023/12/29 04:55:15;;;;;;;;;4.00;2.00;;;;;10.89;100.00;101191.25;5039086;28;45348;-76
2023/12/29 04:57:41;;;;;;;;;4.00;3.00;;;;;10.60;100.00;101146.84;5037254;28;46534;-75
2023/12/29 05:00:07;;;;;;;;;9.00;6.00;;;;;10.80;100.00;101181.25;5038791;28;45273;-75
2023/12/29 05:02:32;;;;;;;;;5.67;4.67;;;;;11.10;100.00;101220.22;5037457;27;45421;-74
2023/12/29 05:04:57;;;;;;;;;7.67;5.00;;;;;10.73;100.00;101163.78;5039241;28;45380;-75
2023/12/29 05:07:23;;;;;;;;;7.33;6.00;;;;;9.92;100.00;101020.84;5034608;28;45305;-76
2023/12/29 05:09:49;;;;;;;;;4.33;4.33;;;;;11.01;100.00;101216.50;5036323;27;45405;-75
2023/12/29 05:12:15;;;;;;;;;5.00;3.67;;;;;10.88;100.00;101189.53;5037266;28;47535;-75
2023/12/29 05:14:40;;;;;;;;;5.00;3.00;;;;;11.16;100.00;101252.31;5037404;28;45256;-75
2023/12/29 05:17:06;;;;;;;;;4.00;2.00;;;;;11.07;100.00;101228.66;5036469;28;45454;-75
2023/12/29 05:19:31;;;;;;;;;4.33;2.33;;;;;11.00;100.00;101219.34;5035889;28;45528;-75
2023/12/29 05:21:56;;;;;;;;;4.33;3.00;;;;;10.86;100.00;101207.88;5027333;28;45461;-76
2023/12/29 05:24:22;;;;;;;;;4.00;1.00;;;;;10.57;100.00;101141.72;5040064;28;45435;-76
2023/12/29 05:26:47;;;;;;;;;0.00;0.00;;;;;11.01;100.00;101232.81;5033087;27;48094;-75
2023/12/29 05:29:12;;;;;;;;;1.67;0.33;;;;;10.73;100.00;101174.66;5036989;28;52569;-75
2023/12/29 05:31:38;;;;;;;;;1.00;1.00;;;;;11.22;100.00;101258.03;5034511;28;45332;-75
2023/12/29 05:34:03;;;;;;;;;2.00;1.00;;;;;9.95;100.00;101042.28;5037543;28;45439;-76
2023/12/29 05:36:28;;;;;;;;;3.00;2.00;;;;;11.00;100.00;101238.38;5033645;28;45432;-76
2023/12/29 05:38:55;;;;;;;;;3.67;1.33;;;;;11.21;100.00;101260.91;5039118;28;45450;-76
2023/12/29 05:41:21;;;;;;;;;2.00;0.00;;;;;10.67;100.00;101196.91;5032922;28;45329;-76
2023/12/29 05:43:46;;;;;;;;;3.00;1.00;;;;;10.48;100.00;101166.97;5037364;28;49115;-76
2023/12/29 05:46:12;;;;;;;;;3.00;2.00;;;;;10.79;100.00;101214.00;5034992;27;45319;-76
2023/12/29 05:48:37;;;;;;;;;0.00;0.00;;;;;11.11;100.00;101268.16;5033910;27;45450;-76
2023/12/29 05:51:10;;;;;;;;;1.00;1.00;;;;;11.15;100.00;101269.63;5047941;28;45393;-76
2023/12/29 05:53:36;;;;;;;;;1.67;1.00;;;;;11.21;100.00;101267.19;5038930;28;45657;-76
2023/12/29 05:56:02;;;;;;;;;3.33;1.00;;;;;10.62;100.00;101179.31;5034702;28;47791;-76
2023/12/29 05:58:27;;;;;;;;;2.33;2.00;;;;;11.04;100.00;101237.94;5038583;28;45300;-76
2023/12/29 06:00:54;;;;;;;;;2.67;1.00;;;;;11.09;100.00;101235.69;5035593;28;45259;-76
2023/12/29 06:03:20;;;;;;;;;4.00;1.67;;;;;10.83;100.00;101194.53;5038109;28;45544;-76
2023/12/29 06:05:45;;;;;;;;;3.00;1.00;;;;;10.92;100.00;101215.47;5032539;28;46991;-76
2023/12/29 06:08:10;;;;;;;;;2.00;2.00;;;;;10.93;100.00;101198.16;5037998;27;45359;-76
2023/12/29 06:10:36;;;;;;;;;1.67;0.33;;;;;10.90;100.00;101193.00;5038236;28;45236;-75
2023/12/29 06:13:02;;;;;;;;;2.00;0.00;;;;;11.29;100.00;101252.91;5040132;28;45298;-76
2023/12/29 06:15:28;;;;;;;;;2.00;2.00;;;;;11.07;100.00;101221.38;5039198;28;46201;-75
2023/12/29 06:17:53;;;;;;;;;1.00;1.00;;;;;11.12;100.00;101246.25;5035442;28;45250;-75
2023/12/29 06:20:20;;;;;;;;;7.00;2.00;;;;;10.68;100.00;101181.47;5040174;28;55346;-75
2023/12/29 06:22:45;;;;;;;;;1.67;1.00;;;;;10.99;100.00;101217.63;5037524;28;45458;-75
2023/12/29 06:25:11;;;;;;;;;1.33;1.00;;;;;11.33;100.00;101276.09;5041385;27;45532;-75
2023/12/29 06:27:38;;;;;;;;;2.00;1.00;;;;;10.89;100.00;101201.28;5033397;27;45499;-75
2023/12/29 06:30:08;;;;;;;;;2.33;1.00;;;;;10.53;100.00;101156.56;5040388;28;45293;-75
2023/12/29 06:32:33;;;;;;;;;2.00;2.00;;;;;11.10;100.00;101252.88;5036312;28;45799;-76
2023/12/29 06:34:58;;;;;;;;;4.33;0.33;;;;;10.73;100.00;101201.84;5041318;27;45631;-75
2023/12/29 06:37:24;;;;;;;;;1.00;1.00;;;;;10.63;100.00;101154.72;5034852;28;45245;-75
2023/12/29 06:39:49;;;;;;;;;2.67;0.33;;;;;10.63;100.00;101168.31;5038878;28;45397;-76
2023/12/29 06:42:14;;;;;;;;;5.67;0.00;;;;;10.97;100.00;101206.00;5036503;28;45480;-76
2023/12/29 06:44:40;;;;;;;;;2.67;1.00;;;;;10.96;100.00;101193.44;5040982;28;45568;-75
2023/12/29 06:47:06;;;;;;;;;3.33;2.00;;;;;11.27;100.00;101265.78;5035404;28;58981;-75
2023/12/29 06:49:34;;;;;;;;;1.67;1.67;;;;;10.93;100.00;101197.28;5040169;28;45285;-76
2023/12/29 06:51:59;;;;;;;;;5.67;2.67;;;;;10.99;100.00;101195.88;5038215;28;45378;-76
2023/12/29 06:54:24;;;;;;;;;2.00;1.00;;;;;10.70;100.00;101168.63;5041120;28;45565;-76
2023/12/29 06:56:50;;;;;;;;;1.00;1.00;;;;;11.29;100.00;101250.19;5038211;28;45290;-75
2023/12/29 06:59:16;;;;;;;;;2.33;1.67;;;;;10.99;100.00;101213.03;5037081;28;45259;-76
2023/12/29 07:01:41;;;;;;;;;0.00;0.00;;;;;11.08;100.00;101222.22;5039275;28;45321;-76
2023/12/29 07:04:09;;;;;;;;;1.00;1.00;;;;;11.13;100.00;101219.94;5040942;28;45577;-76
2023/12/29 07:06:35;;;;;;;;;2.00;2.00;;;;;10.85;100.00;101170.81;5035073;28;45421;-76
2023/12/29 07:09:01;;;;;;;;;1.33;1.00;;;;;11.28;100.00;101252.03;5036534;27;45310;-76
2023/12/29 07:11:26;;;;;;;;;2.00;0.00;;;;;9.73;100.00;100977.34;5038036;28;45492;-75
2023/12/29 07:13:51;;;;;;;;;1.00;1.00;;;;;9.94;100.00;101016.13;5036498;28;47368;-75
2023/12/29 07:16:19;;;;;;;;;1.00;1.00;;;;;11.24;100.00;101242.44;5034984;27;46175;-76
2023/12/29 07:18:45;;;;;;;;;2.00;0.67;;;;;11.17;100.00;101260.31;5035331;28;45458;-76
2023/12/29 07:21:11;;;;;;;;;0.00;0.00;;;;;10.82;100.00;101179.22;5037769;28;45501;-78
2023/12/29 07:23:37;;;;;;;;;1.00;0.33;;;;;10.73;100.00;101147.47;5039217;27;47166;-75
2023/12/29 07:26:02;;;;;;;;;3.00;2.00;;;;;11.11;100.00;101238.25;5037038;28;45252;-76
2023/12/29 07:28:28;;;;;;;;;4.00;3.00;;;;;10.64;100.00;101171.91;5039091;28;45274;-76
2023/12/29 07:30:53;;;;;;;;;3.00;1.00;;;;;11.01;100.00;101242.81;5037952;28;45396;-76
2023/12/29 07:33:18;;;;;;;;;2.67;2.33;;;;;11.01;100.00;101245.53;5035281;28;48963;-77
2023/12/29 07:35:44;;;;;;;;;3.67;2.00;;;;;10.75;100.00;101194.38;5038891;28;45456;-78
2023/12/29 07:38:09;;;;;;;;;4.00;2.00;;;;;10.66;100.00;101188.94;5037071;28;45493;-77
2023/12/29 07:40:35;;;;;;;;;2.00;2.00;;;;;10.68;100.00;101193.22;5039053;28;45461;-78
2023/12/29 07:43:00;;;;;;;;;6.00;3.00;;;;;11.00;100.00;101238.38;5037703;28;46389;-77
2023/12/29 07:45:25;;;;;;;;;3.67;2.33;;;;;10.74;100.00;101208.97;5038781;28;45414;-77
2023/12/29 07:47:51;;;;;;;;;3.00;1.00;;;;;10.86;100.00;101235.06;5036761;28;45388;-77
2023/12/29 07:50:16;;;;;;;;;1.00;1.00;;;;;10.82;100.00;101232.72;5040314;28;45449;-78
2023/12/29 07:52:44;;;;;;;;;1.00;0.00;;;;;10.74;100.00;101236.13;5038328;28;46441;-78
2023/12/29 07:55:09;;;;;;;;;9.67;5.67;;;;;10.53;100.00;101205.44;5039385;28;45363;-77
2023/12/29 07:57:34;;;;;;;;;8.67;5.00;;;;;10.39;100.00;101181.38;5037933;28;45511;-77
2023/12/29 08:00:06;;;;;;;;;6.00;4.00;;;;;10.57;100.00;101212.34;5040767;28;45228;-77
2023/12/29 08:02:31;;;;;;;;;5.00;5.00;;;;;10.24;100.00;101155.59;5037827;28;46214;-77
2023/12/29 08:04:56;;;;;;;;;4.67;3.00;;;;;10.47;100.00;101198.72;5039821;28;45336;-77
2023/12/29 08:07:22;;;;;;;;;2.67;1.67;;;;;10.03;100.00;101118.44;5035971;28;45335;-77
2023/12/29 08:09:47;;;;;;;;;2.00;2.00;;;;;9.84;100.00;101083.09;5037987;27;45444;-77
2023/12/29 08:12:13;;;;;;;;;8.00;4.00;;;;;10.37;100.00;101173.38;5037447;28;49465;-78
2023/12/29 08:14:39;;;;;;;;;1.00;0.33;;;;;10.10;100.00;101121.47;5039708;28;45229;-77
2023/12/29 08:17:04;;;;;;;;;1.67;1.00;;;;;10.22;100.00;101138.59;5033962;27;45196;-77
2023/12/29 08:19:29;;;;;;;;;2.00;2.00;;;;;10.03;100.00;101115.75;5039013;28;45253;-78
2023/12/29 08:21:54;;;;;;;;;3.00;1.00;;;;;10.49;100.00;101209.47;5033563;28;45308;-78
2023/12/29 08:24:20;;;;;;;;;3.00;1.00;;;;;10.60;100.00;101233.78;5038370;28;49095;-77
2023/12/29 08:26:46;;;;;;;;;2.00;1.00;;;;;10.57;100.00;101193.34;5033973;27;45467;-76
2023/12/29 08:29:13;;;;;;;;;3.00;1.67;;;;;10.19;100.00;101126.13;5040694;28;45213;-75
2023/12/29 08:31:38;;;;;;;;;8.67;2.33;;;;;9.59;100.00;101031.97;5035662;28;46763;-77
2023/12/29 08:34:03;;;;;;;;;4.00;1.00;;;;;10.82;100.00;101227.28;5039181;28;45338;-76
2023/12/29 08:36:29;;;;;;;;;4.00;2.67;;;;;10.55;100.00;101192.59;5032675;28;45441;-76
2023/12/29 08:38:54;;;;;;;;;3.00;3.00;;;;;10.89;100.00;101226.59;5040170;28;45353;-78
2023/12/29 08:41:19;;;;;;;;;7.67;4.00;;;;;10.93;100.00;101230.78;5029618;28;45725;-76
2023/12/29 08:43:45;;;;;;;;;3.33;2.00;;;;;10.87;100.00;101217.75;5041019;28;45265;-77
2023/12/29 08:46:10;;;;;;;;;2.33;2.00;;;;;10.71;100.00;101187.50;5038276;28;47988;-76
2023/12/29 08:48:35;;;;;;;;;0.33;0.33;;;;;10.85;100.00;101219.75;5038619;28;45599;-76
2023/12/29 08:51:01;;;;;;;;;3.67;1.33;;;;;10.50;100.00;101148.69;5036667;28;48196;-76
2023/12/29 08:53:26;;;;;;;;;4.00;2.33;;;;;10.80;100.00;101211.16;5039327;28;45370;-77
2023/12/29 08:55:52;;;;;;;;;5.67;1.33;;;;;10.75;100.00;101191.66;5036738;27;45505;-76
2023/12/29 08:58:17;;;;;;;;;7.33;2.00;;;;;10.78;100.00;101191.41;5039293;28;45415;-76
2023/12/29 09:00:43;;;;;;;;;1.67;1.67;;;;;11.17;100.00;101251.31;5036840;28;47219;-76
2023/12/29 09:03:08;;;;;;;;;2.00;2.00;;;;;11.27;100.00;101254.88;5038741;28;45399;-77
2023/12/29 09:05:34;;;;;;;;;3.33;2.67;;;;;10.98;100.00;101205.03;5037472;28;45218;-76
2023/12/29 09:07:59;;;;;;;;;3.67;2.33;;;;;10.84;100.00;101182.69;5036996;27;45536;-80
2023/12/29 09:10:24;;;;;;;;;1.00;1.00;;;;;11.34;100.00;101266.94;5038765;28;46487;-78
2023/12/29 09:12:50;;;;;;;;;7.00;4.00;;;;;11.15;100.00;101220.66;5039134;28;45397;-77
2023/12/29 09:15:16;;;;;;;;;1.00;1.00;;;;;11.52;100.00;101267.97;5039192;28;46454;-79
2023/12/29 09:17:42;;;;;;;;;4.33;2.00;;;;;11.57;100.00;101271.09;5032831;28;45372;-75
2023/12/29 09:20:08;;;;;;;;;2.67;2.00;;;;;11.49;100.00;101254.63;5039654;27;45885;-76
2023/12/29 09:22:34;;;;;;;;;3.33;2.00;;;;;11.33;100.00;101227.13;5034299;28;45482;-76
2023/12/29 09:24:59;;;;;;;;;4.33;1.67;;;;;11.59;100.00;101252.78;5038946;27;45250;-76
2023/12/29 09:27:25;;;;;;;;;3.00;2.67;;;;;11.34;100.00;101220.69;5033750;28;45364;-75
2023/12/29 09:29:50;;;;;;;;;1.00;1.00;;;;;11.64;100.00;101280.44;5031769;27;48091;-79
2023/12/29 09:32:15;;;;;;;;;3.00;3.00;;;;;11.59;100.00;101271.84;5032405;28;45347;-77
2023/12/29 09:34:42;;;;;;;;;3.00;1.00;;;;;10.70;100.00;101130.56;5038888;28;45569;-78
2023/12/29 09:37:07;;;;;;;;;3.00;2.00;;;;;10.64;100.00;101088.53;5032969;27;45349;-76
2023/12/29 09:39:33;;;;;;;;;2.33;2.33;;;;;11.39;100.00;101191.22;5038748;28;45441;-77
2023/12/29 09:42:03;;;;;;;;;3.00;2.00;;;;;12.04;100.00;101274.00;5035059;27;45355;-77
2023/12/29 09:44:30;;;;;;;;;3.00;3.00;;;;;11.54;100.00;101197.91;5039367;28;45258;-77
2023/12/29 09:47:00;;;;;;;;;1.00;1.00;;;;;12.08;100.00;101256.38;5031932;27;45524;-77
2023/12/29 09:49:30;;;;;;;;;3.67;2.00;;;;;12.17;100.00;101271.84;5039900;27;45208;-75
2023/12/29 09:51:58;;;;;;;;;3.00;2.67;;;;;12.15;100.00;101273.84;5037484;28;45332;-76
2023/12/29 09:54:24;;;;;;;;;2.67;1.33;;;;;12.19;100.00;101286.19;5042246;28;45461;-77
2023/12/29 09:56:49;;;;;;;;;3.00;1.67;;;;;12.27;100.00;101282.72;5035627;28;45377;-77
2023/12/29 09:59:16;;;;;;;;;1.00;1.00;;;;;12.23;100.00;101249.44;5054149;27;47609;-78
2023/12/29 10:01:45;;;;;;;;;2.67;1.00;;;;;11.91;100.00;101194.47;5039626;28;45301;-77
2023/12/29 10:04:11;;;;;;;;;1.67;1.67;;;;;12.40;100.00;101267.78;5041763;28;45334;-77
2023/12/29 10:06:41;;;;;;;;;4.33;2.00;;;;;12.16;100.00;101212.91;5035491;28;48283;-77
2023/12/29 10:09:11;;;;;;;;;2.00;2.00;;;;;12.52;100.00;101264.84;5039361;27;46679;-77
2023/12/29 10:11:37;;;;;;;;;3.00;1.00;;;;;12.34;100.00;101257.47;5037295;28;45396;-77
2023/12/29 10:14:21;;;;;;;;;3.67;2.00;;;;;12.16;100.00;101212.91;5039155;28;45522;-77
2023/12/29 10:16:54;;;;;;;;;2.67;1.67;;;;;12.57;100.00;101259.81;5037197;28;45363;-77
2023/12/29 10:19:45;;;;;;;;;40.00;34.00;;;;;12.81;100.00;101284.69;5040220;27;46319;-76
2023/12/29 10:22:36;;;;;;;;;2.00;2.00;;;;;12.62;100.00;101282.91;5036799;28;45341;-77
2023/12/29 10:25:02;;;;;;;;;81.50;65.25;;;;;12.42;100.00;101233.03;5051261;28;45445;-75
2023/12/29 10:27:27;;;;;;;;;4.33;4.33;;;;;12.58;100.00;101275.16;5037084;28;45485;-77
2023/12/29 10:29:52;;;;;;;;;29.67;26.33;;;;;12.73;100.00;101284.59;5041670;27;46654;-78
2023/12/29 10:32:17;;;;;;;;;14.00;12.33;;;;;12.47;100.00;101238.06;5034760;28;46102;-77
2023/12/29 10:34:43;;;;;;;;;29.00;26.00;;;;;12.27;100.00;101193.66;5040622;28;52801;-77
2023/12/29 10:37:14;;;;;;;;;3.00;2.33;;;;;12.74;100.00;101283.56;5034110;28;45635;-77
2023/12/29 10:39:55;;;;;;;;;25.67;23.67;;;;;12.65;100.00;101265.38;5036185;28;47419;-77
2023/12/29 10:42:20;;;;;;;;;10.33;9.67;;;;;12.82;100.00;101289.16;5031760;28;45408;-78
2023/12/29 10:44:46;;;;;;;;;17.33;17.33;;;;;12.37;100.00;101175.41;5041133;28;48727;-78
2023/12/29 10:47:12;;;;;;;;;15.00;13.67;;;;;12.06;100.00;101139.38;5035682;28;45329;-77
2023/12/29 10:49:39;;;;;;;;;7.67;7.33;;;;;12.54;100.00;101216.53;5041725;28;46452;-77
2023/12/29 10:52:13;;;;;;;;;4.00;4.00;;;;;12.64;100.00;101264.53;5036916;28;45318;-77
2023/12/29 10:54:38;;;;;;;;;2.00;1.67;;;;;12.70;100.00;101274.00;5040923;28;45439;-77
2023/12/29 10:57:03;;;;;;;;;16.67;15.33;;;;;12.31;100.00;101195.09;5045886;28;45661;-77
2023/12/29 10:59:29;;;;;;;;;4.67;3.00;;;;;12.69;100.00;101234.09;5031982;28;45311;-77
2023/12/29 11:01:55;;;;;;;;;10.00;6.00;;;;;12.72;100.00;101225.59;5038811;28;45461;-77
2023/12/29 11:04:23;;;;;;;;;13.33;11.33;;;;;12.95;100.00;101256.06;5042661;28;45331;-77
2023/12/29 11:06:51;;;;;;;;;4.00;4.00;;;;;12.64;100.00;101199.09;5026771;28;45195;-76
2023/12/29 11:09:33;;;;;;;;;9.33;9.33;;;;;12.58;100.00;101183.34;5104838;27;45535;-76
2023/12/29 11:12:05;;;;;;;;;24.67;20.67;;;;;12.99;100.00;101252.91;5031309;28;45254;-77